createdAt,value
2023-02-23T00:02:08.850Z,5.37
2023-02-23T00:04:38.423Z,5.44
2023-02-23T00:07:08.033Z,5.49
2023-02-23T00:09:36.648Z,5.52
2023-02-23T00:12:10.202Z,5.47
2023-02-23T00:14:39.865Z,5.44
2023-02-23T00:17:13.710Z,5.44
2023-02-23T00:19:43.885Z,5.47
2023-02-23T00:22:13.070Z,5.48
2023-02-23T00:24:43.088Z,5.52
2023-02-23T00:27:13.828Z,5.53
2023-02-23T00:29:42.402Z,5.57
2023-02-23T00:32:11.145Z,5.50
2023-02-23T00:34:39.716Z,5.53
2023-02-23T00:37:08.703Z,5.47
2023-02-23T00:39:37.423Z,5.50
2023-02-23T00:42:06.920Z,5.43
2023-02-23T00:44:35.816Z,5.34
2023-02-23T00:47:04.502Z,5.28
2023-02-23T00:49:33.348Z,5.18
2023-02-23T00:52:01.891Z,5.21
2023-02-23T00:54:31.958Z,5.27
2023-02-23T00:57:00.613Z,5.33
2023-02-23T00:59:29.780Z,5.21
2023-02-23T01:01:58.496Z,5.16
2023-02-23T01:04:27.138Z,5.16
2023-02-23T01:06:55.703Z,5.13
2023-02-23T01:09:25.980Z,5.10
2023-02-23T01:11:56.600Z,5.17
2023-02-23T01:14:26.204Z,5.31
2023-02-23T01:16:55.146Z,5.26
2023-02-23T01:19:23.818Z,5.10
2023-02-23T01:21:52.497Z,5.08
2023-02-23T01:24:21.100Z,4.94
2023-02-23T01:26:49.653Z,5.02
2023-02-23T01:29:19.438Z,4.85
2023-02-23T01:31:51.422Z,4.86
2023-02-23T01:34:21.832Z,4.70
2023-02-23T01:36:50.902Z,4.70
2023-02-23T01:39:21.643Z,4.68
2023-02-23T01:41:51.977Z,4.78
2023-02-23T01:44:23.719Z,4.75
2023-02-23T01:46:53.417Z,4.84
2023-02-23T01:49:27.613Z,4.85
2023-02-23T01:52:07.960Z,4.89
2023-02-23T01:54:39.562Z,4.82
2023-02-23T01:57:10.886Z,4.79
2023-02-23T01:59:45.281Z,4.71
2023-02-23T02:02:15.393Z,4.68
2023-02-23T02:04:45.035Z,4.71
2023-02-23T02:07:24.355Z,4.73
2023-02-23T02:10:15.080Z,4.73
2023-02-23T02:12:46.674Z,4.56
2023-02-23T02:15:19.131Z,4.65
2023-02-23T02:17:52.397Z,4.72
2023-02-23T02:21:00.510Z,4.71
2023-02-23T02:23:47.267Z,4.61
2023-02-23T02:26:38.877Z,4.60
2023-02-23T02:29:29.923Z,4.69
2023-02-23T02:32:17.880Z,4.49
2023-02-23T02:35:04.904Z,4.42
2023-02-23T02:37:39.536Z,4.35
2023-02-23T02:40:26.176Z,4.40
2023-02-23T02:43:05.739Z,4.40
2023-02-23T02:46:06.022Z,4.31
2023-02-23T02:48:41.915Z,4.33
2023-02-23T02:51:15.347Z,4.25
2023-02-23T02:53:49.757Z,4.34
2023-02-23T02:56:21.683Z,4.30
2023-02-23T02:58:52.146Z,4.29
2023-02-23T03:01:40.407Z,4.33
2023-02-23T03:04:42.236Z,4.40
2023-02-23T03:07:39.798Z,4.38
2023-02-23T03:10:34.668Z,4.32
2023-02-23T03:13:26.611Z,4.39
2023-02-23T03:16:16.458Z,4.38
2023-02-23T03:19:39.233Z,4.33
2023-02-23T03:22:46.476Z,4.21
2023-02-23T03:26:04.987Z,4.10
2023-02-23T03:28:54.198Z,4.11
2023-02-23T03:31:49.612Z,3.98
2023-02-23T03:34:41.734Z,4.02
2023-02-23T03:37:36.882Z,4.00
2023-02-23T03:40:32.434Z,4.06
2023-02-23T03:43:22.318Z,4.05
2023-02-23T03:46:14.804Z,3.98
2023-02-23T03:49:04.095Z,3.97
2023-02-23T03:51:53.689Z,4.01
2023-02-23T03:54:58.046Z,3.94
2023-02-23T03:57:47.031Z,3.94
2023-02-23T04:00:36.417Z,3.80
2023-02-23T04:03:27.778Z,3.72
2023-02-23T04:06:16.768Z,3.70
2023-02-23T04:09:03.986Z,3.68
2023-02-23T04:12:08.427Z,3.66
2023-02-23T04:14:42.063Z,3.63
2023-02-23T04:17:15.936Z,3.62
2023-02-23T04:19:55.028Z,3.69
2023-02-23T04:22:25.059Z,3.66
2023-02-23T04:24:53.956Z,3.68
2023-02-23T04:27:25.439Z,3.64
2023-02-23T04:29:54.109Z,3.58
2023-02-23T04:32:26.021Z,3.41
2023-02-23T04:34:55.172Z,3.47
2023-02-23T04:37:23.880Z,3.47
2023-02-23T04:39:52.358Z,3.35
2023-02-23T04:42:21.274Z,3.59
2023-02-23T04:44:50.163Z,3.55
2023-02-23T04:47:18.736Z,3.53
2023-02-23T04:49:47.566Z,3.40
2023-02-23T04:52:16.104Z,3.43
2023-02-23T04:54:44.960Z,3.37
2023-02-23T04:57:14.816Z,3.18
2023-02-23T04:59:43.520Z,3.19
2023-02-23T05:02:12.314Z,3.20
2023-02-23T05:04:40.954Z,3.23
2023-02-23T05:07:09.568Z,3.32
2023-02-23T05:09:38.194Z,3.32
2023-02-23T05:12:07.001Z,3.25
2023-02-23T05:14:38.977Z,3.30
2023-02-23T05:17:08.800Z,3.30
2023-02-23T05:22:43.799Z,3.28
2023-02-23T05:25:12.929Z,3.25
2023-02-23T05:27:41.977Z,3.33
2023-02-23T05:30:11.645Z,3.33
2023-02-23T05:32:40.236Z,3.42
2023-02-23T05:35:09.095Z,3.48
2023-02-23T05:37:37.738Z,3.45
2023-02-23T05:40:07.294Z,3.42
2023-02-23T05:42:35.783Z,3.50
2023-02-23T05:45:05.068Z,3.61
2023-02-23T05:47:36.204Z,3.59
2023-02-23T05:50:10.063Z,3.53
2023-02-23T05:52:42.755Z,3.61
2023-02-23T05:55:12.726Z,3.57
2023-02-23T05:57:41.794Z,3.67
2023-02-23T06:00:14.504Z,3.79
2023-02-23T06:02:45.569Z,3.96
2023-02-23T06:05:15.631Z,4.10
2023-02-23T06:07:44.304Z,4.38
2023-02-23T06:10:13.567Z,4.69
2023-02-23T06:12:42.233Z,4.77
2023-02-23T06:15:11.231Z,4.68
2023-02-23T06:17:39.840Z,4.65
2023-02-23T06:20:08.807Z,4.71
2023-02-23T06:22:37.330Z,4.63
2023-02-23T06:25:07.888Z,4.88
2023-02-23T06:27:36.660Z,4.90
2023-02-23T06:30:05.482Z,4.88
2023-02-23T06:32:34.152Z,4.94
2023-02-23T06:35:04.327Z,4.97
2023-02-23T06:37:33.837Z,4.98
2023-02-23T06:40:02.800Z,5.04
2023-02-23T06:42:31.413Z,5.11
2023-02-23T06:45:02.291Z,5.32
2023-02-23T06:47:30.976Z,5.39
2023-02-23T06:50:03.184Z,5.41
2023-02-23T06:52:31.932Z,5.34
2023-02-23T06:55:03.650Z,5.47
2023-02-23T06:57:32.669Z,5.47
2023-02-23T07:00:04.474Z,5.60
2023-02-23T07:02:51.489Z,5.64
2023-02-23T07:05:15.206Z,5.78
2023-02-23T07:08:06.616Z,5.88
2023-02-23T07:10:35.372Z,5.83
2023-02-23T07:13:04.262Z,5.96
2023-02-23T07:15:32.973Z,6.13
2023-02-23T07:18:01.654Z,6.32
2023-02-23T07:20:31.432Z,6.62
2023-02-23T07:23:32.130Z,6.76
2023-02-23T07:25:55.002Z,6.81
2023-02-23T07:28:27.298Z,6.97
2023-02-23T07:31:07.624Z,7.24
2023-02-23T07:33:36.745Z,6.72
2023-02-23T07:36:05.864Z,7.47
2023-02-23T07:39:00.521Z,7.69
2023-02-23T07:41:29.225Z,7.78
2023-02-23T07:43:59.782Z,7.92
2023-02-23T07:46:28.479Z,8.16
2023-02-23T07:48:57.013Z,8.33
2023-02-23T07:51:25.577Z,8.40
2023-02-23T07:53:55.206Z,8.42
2023-02-23T07:56:23.909Z,8.58
2023-02-23T07:58:52.633Z,8.47
2023-02-23T08:01:21.654Z,8.58
2023-02-23T08:03:52.046Z,8.41
2023-02-23T08:06:21.450Z,8.59
2023-02-23T08:08:52.206Z,8.61
2023-02-23T08:11:21.606Z,8.82
2023-02-23T08:13:51.858Z,8.98
2023-02-23T08:16:22.509Z,9.21
2023-02-23T08:18:59.902Z,9.39
2023-02-23T08:21:34.232Z,9.50
2023-02-23T08:24:08.259Z,9.42
2023-02-23T08:26:40.521Z,9.60
2023-02-23T08:29:17.379Z,9.61
2023-02-23T08:32:02.498Z,9.83
2023-02-23T08:34:23.233Z,9.58
2023-02-23T08:36:59.322Z,9.50
2023-02-23T08:42:27.463Z,9.85
2023-02-23T08:44:59.179Z,9.90
2023-02-23T08:47:33.268Z,10.40
2023-02-23T08:50:02.084Z,10.56
2023-02-23T08:52:34.304Z,10.50
2023-02-23T08:55:08.372Z,10.80
2023-02-23T08:57:37.513Z,10.82
2023-02-23T09:00:11.513Z,10.79
2023-02-23T09:02:40.177Z,11.03
2023-02-23T09:05:09.843Z,11.25
2023-02-23T09:07:40.072Z,11.26
2023-02-23T09:10:09.839Z,11.16
2023-02-23T09:12:44.705Z,11.21
2023-02-23T09:15:13.784Z,11.26
2023-02-23T09:17:44.126Z,11.59
2023-02-23T09:20:15.818Z,11.72
2023-02-23T09:22:48.016Z,11.66
2023-02-23T09:25:19.276Z,11.99
2023-02-23T09:27:48.039Z,11.95
2023-02-23T09:30:20.152Z,12.22
2023-02-23T09:32:50.512Z,12.50
2023-02-23T09:38:10.741Z,12.49
2023-02-23T09:41:02.056Z,12.11
2023-02-23T09:44:41.469Z,12.06
2023-02-23T09:47:12.045Z,12.59
2023-02-23T09:49:48.875Z,12.77
2023-02-23T09:52:26.408Z,12.58
2023-02-23T09:55:15.801Z,12.89
2023-02-23T09:57:48.058Z,12.73
2023-02-23T10:00:20.871Z,12.64
2023-02-23T10:03:12.832Z,13.15
2023-02-23T10:05:51.733Z,13.28
2023-02-23T10:08:42.591Z,13.19
2023-02-23T10:11:25.966Z,12.92
2023-02-23T10:14:17.212Z,13.15
2023-02-23T10:16:57.378Z,13.72
2023-02-23T10:20:02.837Z,13.80
2023-02-23T10:22:34.422Z,14.00
2023-02-23T10:25:21.021Z,14.25
2023-02-23T10:27:55.913Z,14.47
2023-02-23T10:30:31.852Z,14.55
2023-02-23T10:33:27.811Z,14.81
2023-02-23T10:36:12.598Z,14.83
2023-02-23T10:38:40.009Z,14.44
2023-02-23T10:41:15.050Z,14.19
2023-02-23T10:43:44.569Z,14.12
2023-02-23T10:47:06.682Z,14.14
2023-02-23T10:49:30.509Z,13.82
2023-02-23T10:52:05.137Z,14.24
2023-02-23T10:54:41.519Z,14.62
2023-02-23T10:57:12.568Z,14.58
2023-02-23T10:59:44.161Z,15.04
2023-02-23T11:02:27.563Z,14.79
2023-02-23T11:04:59.278Z,15.11
2023-02-23T11:07:33.472Z,15.24
2023-02-23T11:10:21.384Z,15.39
2023-02-23T11:12:51.923Z,15.32
2023-02-23T11:15:49.429Z,15.35
2023-02-23T11:18:05.691Z,15.51
2023-02-23T11:20:43.382Z,15.84
2023-02-23T11:23:33.170Z,16.19
2023-02-23T11:26:05.908Z,15.99
2023-02-23T11:28:39.700Z,16.56
2023-02-23T11:31:22.551Z,17.00
2023-02-23T11:33:54.494Z,17.16
2023-02-23T11:36:31.538Z,17.04
2023-02-23T11:39:11.202Z,17.21
2023-02-23T11:41:51.816Z,16.96
2023-02-23T11:44:23.720Z,16.79
2023-02-23T11:46:53.516Z,16.84
2023-02-23T11:49:31.076Z,16.94
2023-02-23T11:52:02.980Z,17.33
2023-02-23T11:54:34.136Z,17.26
2023-02-23T11:57:03.300Z,17.02
2023-02-23T11:59:58.303Z,17.48
2023-02-23T12:02:34.997Z,17.36
2023-02-23T12:08:20.387Z,17.28
2023-02-23T12:11:02.269Z,16.80
2023-02-23T12:14:01.980Z,16.65
2023-02-23T12:16:58.310Z,16.99
2023-02-23T12:19:44.063Z,16.76
2023-02-23T12:22:18.382Z,17.20
2023-02-23T12:25:02.981Z,17.25
2023-02-23T12:27:43.498Z,17.55
2023-02-23T12:30:33.219Z,17.43
2023-02-23T12:36:38.396Z,17.65
2023-02-23T12:39:19.142Z,17.76
2023-02-23T12:42:08.782Z,17.81
2023-02-23T12:48:08.811Z,17.58
2023-02-23T12:50:51.231Z,17.58
2023-02-23T12:57:11.487Z,17.79
2023-02-23T13:03:35.995Z,17.69
2023-02-23T13:06:20.607Z,17.35
2023-02-23T13:12:06.955Z,17.40
2023-02-23T13:17:47.749Z,17.50
2023-02-23T13:20:42.601Z,17.31
2023-02-23T13:23:29.561Z,17.44
2023-02-23T13:26:08.562Z,17.42
2023-02-23T13:32:37.216Z,17.69
2023-02-23T13:35:31.464Z,17.54
2023-02-23T13:38:27.161Z,17.72
2023-02-23T13:41:07.548Z,17.81
2023-02-23T13:47:09.103Z,17.41
2023-02-23T13:49:49.437Z,17.66
2023-02-23T13:52:37.893Z,17.68
2023-02-23T13:58:23.705Z,17.71
2023-02-23T14:05:12.516Z,16.71
2023-02-23T14:07:45.592Z,17.18
2023-02-23T14:10:44.020Z,17.21
2023-02-23T14:13:18.688Z,17.15
2023-02-23T14:16:16.436Z,17.18
2023-02-23T14:19:09.485Z,17.00
2023-02-23T14:22:04.087Z,16.74
2023-02-23T14:24:35.744Z,16.00
2023-02-23T14:27:41.423Z,15.93
2023-02-23T14:30:17.972Z,15.88
2023-02-23T14:32:49.651Z,15.80
2023-02-23T14:35:41.447Z,15.72
2023-02-23T14:38:21.339Z,15.68
2023-02-23T14:40:51.808Z,15.52
2023-02-23T14:43:44.498Z,15.52
2023-02-23T14:46:19.350Z,15.33
2023-02-23T14:49:24.546Z,15.28
2023-02-23T14:51:56.580Z,15.08
2023-02-23T14:54:33.726Z,15.24
2023-02-23T14:57:05.334Z,15.01
2023-02-23T14:59:42.803Z,14.83
2023-02-23T15:02:14.560Z,14.92
2023-02-23T15:04:46.194Z,14.89
2023-02-23T15:07:25.739Z,14.70
2023-02-23T15:09:57.289Z,14.68
2023-02-23T15:12:29.019Z,14.47
2023-02-23T15:15:00.642Z,14.35
2023-02-23T15:17:32.484Z,14.21
2023-02-23T15:20:17.368Z,14.14
2023-02-23T15:22:41.815Z,13.97
2023-02-23T15:25:19.522Z,13.91
2023-02-23T15:27:51.190Z,13.67
2023-02-23T15:30:31.672Z,13.65
2023-02-23T15:33:09.414Z,13.46
2023-02-23T15:36:13.039Z,13.30
2023-02-23T15:38:44.758Z,13.21
2023-02-23T15:41:38.725Z,13.15
2023-02-23T15:44:22.744Z,12.99
2023-02-23T15:46:57.380Z,12.84
2023-02-23T15:49:29.040Z,12.77
2023-02-23T15:52:04.062Z,12.64
2023-02-23T15:54:41.610Z,12.52
2023-02-23T15:57:22.969Z,12.45
2023-02-23T15:59:54.673Z,12.38
2023-02-23T16:02:27.713Z,12.29
2023-02-23T16:04:57.880Z,12.18
2023-02-23T16:07:32.450Z,12.09
2023-02-23T16:10:08.848Z,11.54
2023-02-23T16:12:40.347Z,11.91
2023-02-23T16:15:21.198Z,11.85
2023-02-23T16:21:21.209Z,11.71
2023-02-23T16:24:13.895Z,11.69
2023-02-23T16:27:12.221Z,11.55
2023-02-23T16:33:12.670Z,11.40
2023-02-23T16:35:50.222Z,11.35
2023-02-23T16:38:50.828Z,11.28
2023-02-23T16:41:29.481Z,11.18
2023-02-23T16:44:04.256Z,11.13
2023-02-23T16:46:55.316Z,11.01
2023-02-23T16:49:25.514Z,10.98
2023-02-23T16:51:55.839Z,10.86
2023-02-23T16:54:26.149Z,10.48
2023-02-23T16:57:08.273Z,10.36
2023-02-23T16:59:41.024Z,10.80
2023-02-23T17:02:14.218Z,10.75
2023-02-23T17:04:46.023Z,10.68
2023-02-23T17:07:14.943Z,10.54
2023-02-23T17:09:44.353Z,10.57
2023-02-23T17:12:21.953Z,10.55
2023-02-23T17:14:51.432Z,10.49
2023-02-23T17:17:21.864Z,10.41
2023-02-23T17:19:50.653Z,10.40
2023-02-23T17:22:19.297Z,10.33
2023-02-23T17:24:49.853Z,10.25
2023-02-23T17:27:20.021Z,10.22
2023-02-23T17:29:51.015Z,10.23
2023-02-23T17:32:21.384Z,10.22
2023-02-23T17:34:51.789Z,10.18
2023-02-23T17:37:22.024Z,10.07
2023-02-23T17:39:57.007Z,10.08
2023-02-23T17:42:33.367Z,9.99
2023-02-23T17:45:17.552Z,9.94
2023-02-23T17:47:48.251Z,9.92
2023-02-23T17:50:19.931Z,9.83
2023-02-23T17:52:50.736Z,9.81
2023-02-23T17:55:22.270Z,9.77
2023-02-23T17:57:50.982Z,9.67
2023-02-23T18:00:21.257Z,9.57
2023-02-23T18:02:50.259Z,9.54
2023-02-23T18:05:19.234Z,9.51
2023-02-23T18:07:48.735Z,9.48
2023-02-23T18:10:18.108Z,9.41
2023-02-23T18:12:46.968Z,9.44
2023-02-23T18:15:17.556Z,9.31
2023-02-23T18:17:49.388Z,9.24
2023-02-23T18:20:18.374Z,9.23
2023-02-23T18:22:46.950Z,9.12
2023-02-23T18:25:24.143Z,9.00
2023-02-23T18:27:54.543Z,9.02
2023-02-23T18:30:25.184Z,8.99
2023-02-23T18:33:00.907Z,8.96
2023-02-23T18:35:31.029Z,8.89
2023-02-23T18:38:00.935Z,8.88
2023-02-23T18:40:29.511Z,8.83
2023-02-23T18:43:01.091Z,8.78
2023-02-23T18:45:30.718Z,8.67
2023-02-23T18:47:59.397Z,8.60
2023-02-23T18:50:28.245Z,8.55
2023-02-23T18:52:59.795Z,8.52
2023-02-23T18:55:28.601Z,8.55
2023-02-23T18:57:57.672Z,8.50
2023-02-23T19:00:28.186Z,8.47
2023-02-23T19:02:58.969Z,8.00
2023-02-23T19:05:30.533Z,8.46
2023-02-23T19:08:01.303Z,8.50
2023-02-23T19:10:56.845Z,8.54
2023-02-23T19:13:32.007Z,8.47
2023-02-23T19:16:06.177Z,8.42
2023-02-23T19:18:54.133Z,8.32
2023-02-23T19:21:35.976Z,8.29
2023-02-23T19:24:24.937Z,8.16
2023-02-23T19:26:57.251Z,8.10
2023-02-23T19:31:07.313Z,8.11
2023-02-23T19:32:04.833Z,8.09
2023-02-23T19:34:52.836Z,8.05
2023-02-23T19:40:57.135Z,7.94
2023-02-23T19:49:52.774Z,7.78
2023-02-23T19:50:41.923Z,7.89
2023-02-23T19:52:45.162Z,7.87
2023-02-23T19:59:10.803Z,7.92
2023-02-23T20:13:59.521Z,7.48
2023-02-23T20:16:35.459Z,7.99
2023-02-23T20:19:13.386Z,8.02
2023-02-23T20:22:02.255Z,7.94
2023-02-23T20:24:52.343Z,8.07
2023-02-23T20:28:07.996Z,7.64
2023-02-23T20:30:16.908Z,8.01
2023-02-23T20:32:53.776Z,8.00
2023-02-23T20:35:24.133Z,7.62
2023-02-23T20:38:16.788Z,8.13
2023-02-23T20:40:45.461Z,8.06
2023-02-23T20:43:15.852Z,7.99
2023-02-23T20:45:45.856Z,8.09
2023-02-23T20:48:14.523Z,8.01
2023-02-23T20:50:44.391Z,8.07
2023-02-23T20:53:12.983Z,8.04
2023-02-23T20:55:49.452Z,8.08
2023-02-23T20:58:22.813Z,8.11
2023-02-23T21:00:53.680Z,8.08
2023-02-23T21:03:22.676Z,8.10
2023-02-23T21:05:59.136Z,8.13
2023-02-23T21:11:34.673Z,8.01
2023-02-23T21:14:21.224Z,8.02
2023-02-23T21:16:55.796Z,7.98
2023-02-23T21:22:37.703Z,7.90
2023-02-23T21:25:12.490Z,7.95
2023-02-23T21:27:51.142Z,7.91
2023-02-23T21:30:28.871Z,7.83
2023-02-23T21:33:00.764Z,7.92
2023-02-23T21:35:31.230Z,7.88
2023-02-23T21:38:01.947Z,7.84
2023-02-23T21:40:39.767Z,7.78
2023-02-23T21:43:27.530Z,7.77
2023-02-23T21:45:56.356Z,7.81
2023-02-23T21:48:25.718Z,7.80
2023-02-23T21:50:56.415Z,7.81
2023-02-23T21:53:24.659Z,7.85
2023-02-23T21:55:53.279Z,7.83
2023-02-23T21:58:21.935Z,7.66
2023-02-23T22:00:50.562Z,7.81
2023-02-23T22:03:19.171Z,7.84
2023-02-23T22:05:47.687Z,7.76
2023-02-23T22:08:17.731Z,7.84
2023-02-23T22:10:50.109Z,7.89
2023-02-23T22:13:18.794Z,7.85
2023-02-23T22:15:47.988Z,7.90
2023-02-23T22:18:17.834Z,7.89
2023-02-23T22:20:52.476Z,7.88
2023-02-23T22:23:22.494Z,7.86
2023-02-23T22:25:52.597Z,7.80
2023-02-23T22:28:24.231Z,7.82
2023-02-23T22:31:00.305Z,7.83
2023-02-23T22:33:34.564Z,7.80
2023-02-23T22:36:06.848Z,7.88
2023-02-23T22:38:37.715Z,7.78
2023-02-23T22:41:08.512Z,7.79
2023-02-23T22:43:46.730Z,7.78
2023-02-23T22:46:18.112Z,7.76
2023-02-23T22:48:46.978Z,7.72
2023-02-23T22:51:21.160Z,7.72
2023-02-23T22:53:53.211Z,7.62
2023-02-23T22:56:23.879Z,7.67
2023-02-23T22:59:05.559Z,7.63
2023-02-23T23:01:43.861Z,7.72
2023-02-23T23:04:18.852Z,7.70
2023-02-23T23:07:01.837Z,7.73
2023-02-23T23:09:30.828Z,7.66
2023-02-23T23:12:04.201Z,7.65
2023-02-23T23:14:34.567Z,7.57
2023-02-23T23:17:04.633Z,7.55
2023-02-23T23:19:37.146Z,7.50
2023-02-23T23:22:07.839Z,7.42
2023-02-23T23:24:41.183Z,7.51
2023-02-23T23:27:13.784Z,7.53
2023-02-23T23:29:48.501Z,7.55
2023-02-23T23:32:19.440Z,7.55
2023-02-23T23:34:52.367Z,7.53
2023-02-23T23:37:21.232Z,7.59
2023-02-23T23:39:51.556Z,7.55
2023-02-23T23:42:24.997Z,7.56
2023-02-23T23:44:57.124Z,7.55
2023-02-23T23:47:30.642Z,7.48
2023-02-23T23:49:59.165Z,7.50
2023-02-23T23:52:29.430Z,7.58
2023-02-23T23:54:58.889Z,7.54
2023-02-23T23:57:29.019Z,7.56
2023-02-23T23:59:57.787Z,7.56
